Time;durP1;ratioP1;P1;durP2;ratioP2;P2;SDS_P1;SDS_P2;PMS_P1;PMS_P2;Temp;Humidity;BMP_temperature;BMP_pressure;BME280_temperature;BME280_humidity;BME280_pressure;Samples;Min_cycle;Max_cycle;Signal;HPM_P1;HPM_P2
2022/10/12 00:00:15;;;;;;;11.45;4.15;;;;;;;7.67;93.59;101256.56;5045014;28;20052;-77
2022/10/12 00:02:42;;;;;;;9.88;3.67;;;;;;;7.68;93.75;101258.31;5042598;28;20056;-76
2022/10/12 00:05:09;;;;;;;14.05;4.70;;;;;;;7.69;94.07;101253.00;5045332;28;20084;-77
2022/10/12 00:07:35;;;;;;;13.95;4.53;;;;;;;7.54;93.50;101234.88;5046517;28;20049;-77
2022/10/12 00:10:03;;;;;;;9.63;3.83;;;;;;;7.53;93.72;101248.09;5040784;28;20148;-75
2022/10/12 00:12:29;;;;;;;9.35;4.00;;;;;;;7.53;94.26;101256.00;5044125;28;20047;-78
2022/10/12 00:14:56;;;;;;;13.43;4.30;;;;;;;7.53;94.45;101259.50;5034867;28;20052;-74
2022/10/12 00:17:23;;;;;;;10.13;4.40;;;;;;;7.56;94.92;101255.91;5039037;28;20071;-77
2022/10/12 00:19:49;;;;;;;14.10;4.40;;;;;;;7.56;94.58;101261.19;5045218;28;20493;-77
2022/10/12 00:22:16;;;;;;;10.88;4.00;;;;;;;7.53;94.61;101264.78;5047712;28;20053;-77
2022/10/12 00:24:42;;;;;;;11.68;4.03;;;;;;;7.50;94.18;101267.47;5043272;28;20056;-75
2022/10/12 00:27:09;;;;;;;9.80;3.70;;;;;;;7.48;94.30;101265.75;5039689;28;20063;-76
2022/10/12 00:29:35;;;;;;;11.13;4.30;;;;;;;7.38;94.95;101258.06;5043630;28;20037;-76
2022/10/12 00:32:02;;;;;;;11.63;4.03;;;;;;;7.37;95.39;101263.34;5044475;28;20067;-77
2022/10/12 00:34:29;;;;;;;8.82;3.45;;;;;;;7.34;95.90;101261.63;5043261;28;20049;-76
2022/10/12 00:36:55;;;;;;;10.15;3.60;;;;;;;7.40;95.38;101258.88;5053259;28;20053;-77
2022/10/12 00:39:22;;;;;;;10.30;3.15;;;;;;;7.39;94.90;101257.16;5045255;28;20458;-76
2022/10/12 00:41:48;;;;;;;9.93;3.50;;;;;;;7.36;94.76;101257.22;5044040;28;20120;-76
2022/10/12 00:44:35;;;;;;;13.75;3.78;;;;;;;7.18;95.15;101235.63;5045282;28;20536;-77
2022/10/12 00:47:09;;;;;;;9.25;3.40;;;;;;;7.20;95.28;101234.69;5044287;28;20396;-74
2022/10/12 00:49:36;;;;;;;9.50;3.80;;;;;;;7.22;95.57;101238.19;5047925;28;20051;-77
2022/10/12 00:52:07;;;;;;;10.70;3.85;;;;;;;7.25;95.15;101253.03;5043030;28;20489;-78
2022/10/12 00:54:40;;;;;;;11.50;3.80;;;;;;;7.28;95.01;101252.97;5045487;28;20109;-75
2022/10/12 00:57:10;;;;;;;13.45;3.80;;;;;;;7.19;94.80;101240.88;5046009;28;20500;-75
2022/10/12 00:59:44;;;;;;;9.85;3.38;;;;;;;7.23;95.26;101245.19;5046353;28;20535;-76
2022/10/12 01:02:12;;;;;;;12.38;3.75;;;;;;;7.05;95.61;101227.09;5040574;28;20063;-76
2022/10/12 01:04:40;;;;;;;9.00;3.30;;;;;;;7.12;96.40;101247.13;5043922;28;20064;-77
2022/10/12 01:07:06;;;;;;;12.85;4.15;;;;;;;7.01;96.32;101233.31;5040774;28;20037;-75
2022/10/12 01:09:33;;;;;;;10.13;3.60;;;;;;;7.12;97.06;101265.56;5044565;28;20064;-77
2022/10/12 01:12:02;;;;;;;10.40;3.60;;;;;;;7.08;96.80;101252.50;5044411;28;20044;-72
2022/10/12 01:14:29;;;;;;;11.15;3.33;;;;;;;7.10;96.77;101256.81;5044538;28;20042;-76
2022/10/12 01:17:14;;;;;;;10.65;3.80;;;;;;;7.11;96.98;101257.69;5045155;28;20060;-76
2022/10/12 01:20:04;;;;;;;10.25;3.20;;;;;;;7.10;97.42;101256.81;5047304;28;20136;-74
2022/10/12 01:22:40;;;;;;;8.98;3.20;;;;;;;7.15;96.69;101257.63;5042024;28;20041;-76
2022/10/12 01:25:57;;;;;;;9.43;3.33;;;;;;;7.18;96.30;101261.97;5043672;28;20057;-76
2022/10/12 01:28:40;;;;;;;8.20;3.38;;;;;;;7.18;96.87;101251.44;5014760;28;20045;-76
2022/10/12 01:31:37;;;;;;;8.68;3.70;;;;;;;7.30;96.57;101259.09;5048985;28;20052;-75
2022/10/12 01:34:23;;;;;;;9.77;3.63;;;;;;;7.23;96.02;101250.47;5047025;28;20048;-76
2022/10/12 01:37:10;;;;;;;7.72;3.33;;;;;;;7.18;96.10;101252.28;5045093;28;20045;-72
2022/10/12 01:39:47;;;;;;;9.65;3.35;;;;;;;7.11;95.26;101261.19;5045462;28;20136;-72
2022/10/12 01:42:20;;;;;;;12.82;3.50;;;;;;;6.86;96.12;101223.06;5045178;28;20127;-74
2022/10/12 01:44:46;;;;;;;9.05;3.67;;;;;;;6.81;96.75;101223.16;5040047;28;20077;-76
2022/10/12 01:47:13;;;;;;;12.05;3.75;;;;;;;6.94;96.82;101252.75;5045961;28;20045;-76
2022/10/12 01:49:40;;;;;;;8.63;3.90;;;;;;;6.86;98.03;101254.66;5046612;28;20041;-75
2022/10/12 01:52:24;;;;;;;12.52;4.00;;;;;;;6.63;98.93;101219.06;5024849;28;20382;-77
2022/10/12 01:54:51;;;;;;;8.73;3.78;;;;;;;6.63;99.05;101232.25;5042953;28;20128;-78
2022/10/12 01:57:30;;;;;;;12.90;3.92;;;;;;;6.68;99.74;101246.19;5038424;28;20219;-76
2022/10/12 02:00:15;;;;;;;7.43;3.50;;;;;;;6.66;100.00;101231.31;5042382;28;20045;-75
2022/10/12 02:03:00;;;;;;;11.00;3.50;;;;;;;6.66;100.00;101247.97;5048604;28;20139;-76
2022/10/12 02:05:49;;;;;;;13.77;4.00;;;;;;;6.64;100.00;101238.38;5043994;28;20057;-78
2022/10/12 02:08:29;;;;;;;11.55;3.88;;;;;;;6.54;100.00;101211.34;5045980;28;20044;-74
2022/10/12 02:11:04;;;;;;;9.43;3.90;;;;;;;6.79;100.00;101237.22;5027695;28;20049;-74
2022/10/12 02:13:35;;;;;;;9.45;3.60;;;;;;;6.78;99.91;101230.22;5043586;28;20057;-75
2022/10/12 02:16:06;;;;;;;9.75;3.50;;;;;;;6.76;99.64;101234.69;5047350;28;20060;-76
2022/10/12 02:18:37;;;;;;;17.17;4.05;;;;;;;6.78;99.81;101228.47;5042221;28;20132;-76
2022/10/12 02:21:05;;;;;;;10.10;3.83;;;;;;;6.71;99.68;101220.72;5048471;28;20045;-74
2022/10/12 02:23:33;;;;;;;11.35;3.90;;;;;;;6.69;100.00;101226.00;5046156;28;20055;-76
2022/10/12 02:26:01;;;;;;;13.05;3.55;;;;;;;6.61;100.00;101223.50;5045857;28;20056;-77
2022/10/12 02:28:33;;;;;;;14.02;3.45;;;;;;;6.59;100.00;101219.19;5044496;28;20477;-77
2022/10/12 02:31:18;;;;;;;15.25;4.07;;;;;;;6.48;100.00;101186.91;5045893;28;20041;-75
2022/10/12 02:34:00;;;;;;;14.45;3.85;;;;;;;6.46;100.00;101186.06;5043487;28;20064;-75
2022/10/12 02:36:51;;;;;;;18.00;3.50;;;;;;;6.62;100.00;101209.44;5046713;28;20416;-76
2022/10/12 02:39:32;;;;;;;10.70;3.53;;;;;;;6.58;100.00;101210.41;5046892;28;20493;-76
2022/10/12 02:42:07;;;;;;;12.13;4.10;;;;;;;6.44;100.00;101182.63;5047944;28;20049;-76
2022/10/12 02:44:37;;;;;;;11.85;3.97;;;;;;;6.57;100.00;101210.44;5051030;28;20088;-77
2022/10/12 02:47:07;;;;;;;14.43;3.88;;;;;;;6.52;100.00;101202.63;5031591;28;20041;-76
2022/10/12 02:49:35;;;;;;;8.98;4.00;;;;;;;6.54;100.00;101206.09;5051584;28;20503;-76
2022/10/12 02:52:06;;;;;;;12.95;3.90;;;;;;;6.46;100.00;101201.84;5046964;28;20045;-73
2022/10/12 02:54:33;;;;;;;11.85;3.95;;;;;;;6.43;100.00;101210.69;5049660;28;20075;-78
2022/10/12 02:56:59;;;;;;;12.80;3.85;;;;;;;6.41;100.00;101203.72;5047563;28;20049;-76
2022/10/12 02:59:26;;;;;;;16.05;4.30;;;;;;;6.38;100.00;101199.34;5048966;28;20049;-76
2022/10/12 03:01:53;;;;;;;11.90;4.63;;;;;;;6.36;100.00;101200.28;5049387;28;20053;-75
2022/10/12 03:04:19;;;;;;;10.40;4.05;;;;;;;6.33;100.00;101196.81;5051101;28;20445;-74
2022/10/12 03:06:46;;;;;;;11.98;4.60;;;;;;;6.22;100.00;101187.34;5045533;28;20049;-75
2022/10/12 03:09:13;;;;;;;10.10;4.13;;;;;;;6.23;100.00;101186.47;5050002;28;20068;-76
2022/10/12 03:11:43;;;;;;;14.45;4.18;;;;;;;6.28;100.00;101197.78;5042346;28;21245;-76
2022/10/12 03:14:11;;;;;;;11.02;4.25;;;;;;;6.25;100.00;101196.06;5038619;28;20603;-77
2022/10/12 03:16:37;;;;;;;13.77;4.78;;;;;;;6.15;100.00;101176.06;5039596;28;20075;-76
2022/10/12 03:19:04;;;;;;;8.57;4.05;;;;;;;6.21;100.00;101204.03;5040570;28;20056;-80
2022/10/12 03:21:30;;;;;;;11.23;4.43;;;;;;;6.22;100.00;101209.28;5038490;28;20049;-74
2022/10/12 03:23:57;;;;;;;13.05;4.28;;;;;;;6.17;100.00;101211.09;5042542;28;20374;-74
2022/10/12 03:26:24;;;;;;;11.80;4.20;;;;;;;6.11;100.00;101205.09;5041070;28;20080;-75
2022/10/12 03:28:50;;;;;;;13.80;4.70;;;;;;;6.10;100.00;101205.97;5041863;28;20045;-76
2022/10/12 03:31:17;;;;;;;13.63;4.43;;;;;;;6.04;100.00;101206.06;5041352;28;20456;-76
2022/10/12 03:33:44;;;;;;;10.10;4.03;;;;;;;6.06;100.00;101212.16;5041961;28;20201;-75
2022/10/12 03:36:10;;;;;;;7.80;4.00;;;;;;;6.04;100.00;101204.28;5039228;28;20132;-76
2022/10/12 03:38:37;;;;;;;14.07;4.32;;;;;;;5.96;100.00;101191.28;5041139;28;20056;-76
2022/10/12 03:41:03;;;;;;;12.00;4.78;;;;;;;6.08;100.00;101197.22;5039748;28;20037;-74
2022/10/12 03:43:33;;;;;;;12.05;4.50;;;;;;;6.10;100.00;101205.97;5037625;28;20448;-75
2022/10/12 03:45:59;;;;;;;14.98;4.50;;;;;;;6.11;100.00;101212.97;5040468;28;20435;-75
2022/10/12 03:48:26;;;;;;;12.55;4.47;;;;;;;6.08;100.00;101194.59;5040630;28;20045;-72
2022/10/12 03:50:52;;;;;;;8.60;4.00;;;;;;;6.10;100.00;101195.44;5037972;28;20132;-74
2022/10/12 03:53:19;;;;;;;11.73;4.03;;;;;;;6.08;100.00;101205.13;5039050;28;20523;-77
2022/10/12 03:55:46;;;;;;;8.45;4.00;;;;;;;6.05;100.00;101199.91;5041175;28;20489;-75
2022/10/12 03:58:12;;;;;;;12.07;4.45;;;;;;;6.09;100.00;101204.22;5039147;28;20063;-71
2022/10/12 04:00:39;;;;;;;9.73;3.67;;;;;;;6.08;100.00;101206.00;5036078;28;20053;-74
2022/10/12 04:03:06;;;;;;;11.50;3.97;;;;;;;6.09;100.00;101205.09;5041689;28;20390;-75
2022/10/12 04:05:32;;;;;;;11.57;4.18;;;;;;;6.11;100.00;101199.81;5041082;28;20099;-76
2022/10/12 04:07:59;;;;;;;9.50;4.00;;;;;;;6.14;100.00;101199.78;5040184;28;20072;-75
2022/10/12 04:10:25;;;;;;;9.02;4.20;;;;;;;6.05;100.00;101189.38;5040475;28;20053;-74
2022/10/12 04:12:52;;;;;;;7.90;3.92;;;;;;;6.13;100.00;101201.53;5040867;28;20473;-71
2022/10/12 04:15:19;;;;;;;11.60;4.18;;;;;;;6.14;100.00;101205.88;5041344;28;20493;-75
2022/10/12 04:17:45;;;;;;;11.15;4.28;;;;;;;6.12;100.00;101196.31;5038025;28;20063;-72
2022/10/12 04:20:12;;;;;;;9.65;4.15;;;;;;;6.18;100.00;101206.69;5040935;28;20048;-77
2022/10/12 04:22:39;;;;;;;14.70;4.25;;;;;;;6.19;100.00;101204.06;5021093;28;20049;-72
2022/10/12 04:25:06;;;;;;;11.65;3.80;;;;;;;6.19;100.00;101203.19;5040826;28;20075;-74
2022/10/12 04:27:32;;;;;;;11.45;4.05;;;;;;;6.16;100.00;101197.97;5039079;28;20136;-73
2022/10/12 04:29:59;;;;;;;14.70;4.00;;;;;;;6.15;100.00;101202.34;5039967;28;20072;-74
2022/10/12 04:32:25;;;;;;;10.18;3.80;;;;;;;6.13;100.00;101206.81;5040806;28;20067;-76
2022/10/12 04:34:52;;;;;;;8.15;4.22;;;;;;;6.12;100.00;101198.94;5039471;28;20064;-74
2022/10/12 04:37:19;;;;;;;9.23;4.20;;;;;;;6.02;100.00;101181.53;5038474;28;20052;-74
2022/10/12 04:39:45;;;;;;;10.90;3.80;;;;;;;6.04;100.00;101182.38;5038700;28;20051;-74
2022/10/12 04:42:12;;;;;;;12.38;4.03;;;;;;;6.04;100.00;101185.03;5043317;28;20102;-75
2022/10/12 04:44:38;;;;;;;10.10;3.63;;;;;;;6.10;100.00;101203.34;5045125;28;20060;-75
2022/10/12 04:47:05;;;;;;;9.38;3.88;;;;;;;6.08;100.00;101210.38;5043998;28;20049;-76
2022/10/12 04:49:31;;;;;;;13.48;4.32;;;;;;;6.18;100.00;101218.09;5042673;28;20049;-75
2022/10/12 04:51:58;;;;;;;8.70;3.92;;;;;;;6.19;100.00;101221.59;5045698;28;20063;-77
2022/10/12 04:54:25;;;;;;;14.73;4.40;;;;;;;6.14;100.00;101212.94;5041350;28;20053;-76
2022/10/12 04:56:51;;;;;;;11.20;4.20;;;;;;;6.12;100.00;101209.44;5042493;28;20041;-77
2022/10/12 04:59:18;;;;;;;11.50;4.03;;;;;;;6.02;100.00;101207.84;5045737;28;20522;-76
2022/10/12 05:01:44;;;;;;;12.40;4.28;;;;;;;5.85;100.00;101174.75;5041857;28;20055;-79
2022/10/12 05:04:11;;;;;;;9.98;3.83;;;;;;;5.99;100.00;101217.50;5039337;28;20485;-73
2022/10/12 05:06:37;;;;;;;15.32;4.95;;;;;;;5.96;100.00;101214.94;5036482;28;20195;-76
2022/10/12 05:09:04;;;;;;;11.65;4.30;;;;;;;5.93;100.00;101220.25;5047951;28;20051;-76
2022/10/12 05:11:30;;;;;;;12.63;3.95;;;;;;;5.89;100.00;101218.53;5044648;28;20052;-77
2022/10/12 05:13:57;;;;;;;8.57;4.03;;;;;;;5.80;100.00;101205.50;5042435;28;20167;-76
2022/10/12 05:16:24;;;;;;;11.52;4.60;;;;;;;5.71;100.00;101207.38;5045463;28;20493;-77
2022/10/12 05:18:50;;;;;;;8.63;4.20;;;;;;;5.77;100.00;101223.94;5041975;28;20045;-77
2022/10/12 05:21:17;;;;;;;13.57;4.32;;;;;;;5.71;100.00;101208.25;5047483;28;20048;-74
2022/10/12 05:23:43;;;;;;;11.60;4.00;;;;;;;5.81;100.00;101222.16;5045794;28;20417;-75
2022/10/12 05:26:10;;;;;;;11.50;4.28;;;;;;;5.66;100.00;101196.09;5042486;28;21193;-73
2022/10/12 05:28:37;;;;;;;10.65;4.38;;;;;;;5.60;100.00;101189.16;5041564;28;20045;-77
2022/10/12 05:31:07;;;;;;;15.38;5.00;;;;;;;5.78;100.00;101211.69;5047468;28;20443;-76
2022/10/12 05:33:33;;;;;;;8.07;4.13;;;;;;;5.72;100.00;101207.38;5044657;28;20063;-75
2022/10/12 05:36:00;;;;;;;11.93;4.32;;;;;;;5.80;100.00;101217.78;5046745;28;20103;-75
2022/10/12 05:38:26;;;;;;;15.95;4.90;;;;;;;5.71;100.00;101197.75;5041483;28;20052;-77
2022/10/12 05:40:53;;;;;;;7.57;4.28;;;;;;;5.78;100.00;101209.91;5041406;28;20044;-76
2022/10/12 05:43:26;;;;;;;15.45;4.40;;;;;;;5.82;100.00;101214.25;5039552;28;20053;-79
2022/10/12 05:45:52;;;;;;;11.38;4.07;;;;;;;5.81;100.00;101215.13;5037005;28;20049;-76
2022/10/12 05:48:19;;;;;;;11.80;4.63;;;;;;;5.75;100.00;101186.31;5041839;28;20515;-71
2022/10/12 05:50:45;;;;;;;10.55;4.20;;;;;;;5.86;100.00;101207.16;5044156;28;20049;-75
2022/10/12 05:53:12;;;;;;;10.48;4.32;;;;;;;5.83;100.00;101181.78;5047462;28;20045;-76
2022/10/12 05:55:39;;;;;;;12.05;4.65;;;;;;;6.02;100.00;101210.47;5043323;28;20056;-73
2022/10/12 05:58:05;;;;;;;12.80;4.72;;;;;;;6.04;100.00;101213.94;5042949;28;20052;-75
2022/10/12 06:00:32;;;;;;;12.90;4.20;;;;;;;5.94;100.00;101193.06;5044894;28;20139;-76
2022/10/12 06:02:58;;;;;;;10.90;4.38;;;;;;;5.99;100.00;101209.63;5047817;28;20051;-76
2022/10/12 06:05:25;;;;;;;9.98;4.45;;;;;;;6.02;100.00;101210.47;5043541;28;20136;-76
2022/10/12 06:07:52;;;;;;;9.98;4.00;;;;;;;6.08;100.00;101215.63;5047823;28;20055;-73
2022/10/12 06:10:18;;;;;;;11.00;4.30;;;;;;;6.07;100.00;101200.75;5050311;28;20183;-75
2022/10/12 06:12:45;;;;;;;10.07;4.43;;;;;;;6.14;100.00;101207.66;5048226;28;20056;-75
2022/10/12 06:15:11;;;;;;;13.82;4.43;;;;;;;5.97;100.00;101184.25;5049949;28;20063;-76
2022/10/12 06:17:38;;;;;;;9.68;4.00;;;;;;;6.14;100.00;101211.13;5051229;28;20076;-77
2022/10/12 06:20:05;;;;;;;10.50;3.90;;;;;;;6.18;100.00;101214.59;5047622;28;20478;-77
2022/10/12 06:22:31;;;;;;;11.25;4.60;;;;;;;6.20;100.00;101204.91;5044352;28;20071;-77
2022/10/12 06:24:58;;;;;;;7.90;3.70;;;;;;;6.18;100.00;101204.94;5041977;28;20631;-77
2022/10/12 06:27:24;;;;;;;10.77;4.25;;;;;;;6.18;100.00;101210.19;5047621;28;20044;-74
2022/10/12 06:29:51;;;;;;;12.50;5.15;;;;;;;6.06;100.00;101181.47;5049964;28;20048;-78
2022/10/12 06:32:17;;;;;;;11.00;4.03;;;;;;;6.05;100.00;101176.25;5044756;28;20063;-76
2022/10/12 06:34:45;;;;;;;12.05;4.43;;;;;;;6.26;100.00;101218.84;5050923;28;20045;-76
2022/10/12 06:37:11;;;;;;;10.85;5.18;;;;;;;6.20;100.00;101204.91;5041308;28;20498;-76
2022/10/12 06:39:58;;;;;;;12.38;5.55;;;;;;;6.14;100.00;101194.53;5048694;28;20481;-75
2022/10/12 06:42:24;;;;;;;10.48;5.38;;;;;;;6.05;100.00;101171.84;5048440;28;20127;-77
2022/10/12 06:44:51;;;;;;;14.23;4.65;;;;;;;6.33;100.00;101215.22;5048739;28;20132;-77
2022/10/12 06:47:18;;;;;;;10.82;4.88;;;;;;;6.34;100.00;101213.44;5048874;28;20500;-75
2022/10/12 06:49:44;;;;;;;10.05;4.60;;;;;;;6.33;100.00;101201.19;5048276;28;20556;-76
2022/10/12 06:52:11;;;;;;;10.80;4.85;;;;;;;6.48;100.00;101219.34;5049045;28;20552;-79
2022/10/12 06:54:37;;;;;;;13.73;5.05;;;;;;;6.52;100.00;101223.66;5048821;28;20641;-76
2022/10/12 06:57:05;;;;;;;14.52;5.30;;;;;;;6.60;100.00;101213.91;5043558;28;20056;-75
2022/10/12 06:59:31;;;;;;;12.95;5.68;;;;;;;6.70;100.00;101219.84;5053471;28;20668;-78
2022/10/12 07:01:58;;;;;;;14.85;5.43;;;;;;;6.77;100.00;101223.25;5052408;28;20481;-74
2022/10/12 07:04:25;;;;;;;15.65;7.20;;;;;;;6.86;100.00;101221.31;5057567;28;20049;-74
2022/10/12 07:06:51;;;;;;;13.50;5.35;;;;;;;7.08;100.00;101205.09;5045029;28;20140;-78
2022/10/12 07:09:18;;;;;;;16.05;5.22;;;;;;;7.35;97.38;101213.31;5047078;28;20037;-77
2022/10/12 07:11:44;;;;;;;11.32;4.90;;;;;;;7.61;96.18;101225.06;5047179;28;20044;-76
2022/10/12 07:14:11;;;;;;;10.95;4.75;;;;;;;7.87;94.79;101214.78;5055823;28;20045;-75
2022/10/12 07:16:37;;;;;;;11.80;5.03;;;;;;;8.22;92.21;101218.38;5045404;28;20049;-77
2022/10/12 07:19:04;;;;;;;13.35;4.82;;;;;;;8.38;89.94;101211.84;5042394;28;20049;-78
2022/10/12 07:21:31;;;;;;;8.98;4.55;;;;;;;8.47;89.14;101202.84;5040185;28;20045;-74
2022/10/12 07:23:57;;;;;;;10.00;4.70;;;;;;;8.50;88.65;101193.06;5041107;28;20065;-76
2022/10/12 07:26:24;;;;;;;9.38;4.57;;;;;;;8.63;87.43;101205.06;5041808;28;20432;-76
2022/10/12 07:28:50;;;;;;;10.00;4.43;;;;;;;8.81;86.39;101208.13;5022779;28;20059;-78
2022/10/12 07:31:17;;;;;;;8.90;4.43;;;;;;;8.95;85.04;101211.25;5048899;28;20120;-78
2022/10/12 07:33:43;;;;;;;11.35;5.28;;;;;;;9.05;84.38;101208.31;5047369;28;20077;-75
2022/10/12 07:36:10;;;;;;;11.48;4.32;;;;;;;9.42;83.49;101218.72;5041050;28;20052;-73
2022/10/12 07:38:43;;;;;;;9.00;4.57;;;;;;;9.65;81.68;101227.72;5049343;28;20056;-72
2022/10/12 07:41:11;;;;;;;13.15;4.35;;;;;;;9.85;80.07;101218.28;5048588;28;20420;-77
2022/10/12 07:43:38;;;;;;;10.80;4.07;;;;;;;9.90;79.92;101223.44;5044146;28;20045;-77
2022/10/12 07:46:04;;;;;;;9.90;4.85;;;;;;;9.91;79.88;101213.75;5047807;28;20128;-75
2022/10/12 07:48:31;;;;;;;11.82;4.38;;;;;;;10.04;79.61;101218.59;5043923;28;20077;-73
2022/10/12 07:51:09;;;;;;;10.63;5.00;;;;;;;10.18;78.83;101226.97;5047291;28;20051;-78
2022/10/12 07:53:37;;;;;;;18.67;7.40;;;;;;;10.20;78.28;101229.59;5040739;28;20699;-78
2022/10/12 07:56:06;;;;;;;8.48;4.03;;;;;;;10.10;78.20;101221.03;5043852;28;20075;-79
2022/10/12 07:58:33;;;;;;;7.43;3.65;;;;;;;10.09;78.48;101221.94;5040417;28;20045;-78
2022/10/12 08:01:06;;;;;;;11.63;3.95;;;;;;;10.09;77.88;101224.56;5044636;28;20045;-79
2022/10/12 08:03:33;;;;;;;11.80;4.35;;;;;;;10.14;77.36;101209.44;5036162;28;20594;-72
2022/10/12 08:06:08;;;;;;;10.10;3.97;;;;;;;10.38;75.66;101230.78;5020377;28;20053;-78
2022/10/12 08:08:35;;;;;;;11.63;4.30;;;;;;;10.44;75.38;101228.78;5041647;28;20052;-80
2022/10/12 08:11:02;;;;;;;9.63;3.92;;;;;;;10.40;75.03;101213.03;5042671;28;20042;-80
2022/10/12 08:13:28;;;;;;;11.70;4.00;;;;;;;10.35;74.81;101222.94;5037382;28;20603;-75
2022/10/12 08:15:55;;;;;;;9.20;3.95;;;;;;;10.30;76.12;101216.91;5032719;28;20048;-78
2022/10/12 08:18:21;;;;;;;7.05;3.45;;;;;;;10.34;76.26;101223.84;5037009;28;20067;-78
2022/10/12 08:20:48;;;;;;;9.23;4.20;;;;;;;10.31;76.66;101219.50;5039159;28;20409;-77
2022/10/12 08:23:14;;;;;;;13.55;4.03;;;;;;;10.17;77.08;101227.00;5040366;28;20045;-79
2022/10/12 08:25:42;;;;;;;10.55;4.38;;;;;;;10.06;78.85;101219.41;5038633;28;20038;-72
2022/10/12 08:28:09;;;;;;;11.38;4.53;;;;;;;10.06;78.44;101230.00;5039078;28;20172;-78
2022/10/12 08:30:37;;;;;;;10.00;3.97;;;;;;;9.87;79.10;101199.72;5037552;28;20049;-75
2022/10/12 08:33:04;;;;;;;10.82;4.30;;;;;;;10.01;80.33;101217.81;5035555;28;20051;-75
2022/10/12 08:35:39;;;;;;;11.50;4.43;;;;;;;10.04;80.04;101212.44;5033890;28;20053;-76
2022/10/12 08:38:07;;;;;;;14.52;4.90;;;;;;;9.96;79.46;101194.13;5039543;28;20052;-72
2022/10/12 08:40:40;;;;;;;7.32;4.35;;;;;;;9.97;80.28;101195.88;5039237;28;20055;-81
2022/10/12 08:43:24;;;;;;;10.30;4.22;;;;;;;10.25;80.87;101222.34;5035100;28;20045;-79
2022/10/12 08:45:59;;;;;;;10.35;4.57;;;;;;;10.38;79.63;101223.69;5035401;28;20485;-75
2022/10/12 08:48:34;;;;;;;14.38;4.97;;;;;;;10.45;78.98;101213.75;5039296;28;20161;-76
2022/10/12 08:51:05;;;;;;;9.32;4.55;;;;;;;10.47;78.62;101214.56;5040349;28;20542;-76
2022/10/12 08:53:43;;;;;;;9.07;4.90;;;;;;;10.32;79.38;101188.59;5038863;28;20488;-80
2022/10/12 08:56:10;;;;;;;10.82;4.90;;;;;;;10.55;79.39;101213.38;5035866;28;20378;-74
2022/10/12 08:58:38;;;;;;;13.07;4.78;;;;;;;10.62;78.52;101208.75;5030884;28;20393;-76
2022/10/12 09:01:26;;;;;;;10.93;5.43;;;;;;;10.73;79.29;101219.84;5044056;28;20068;-74
2022/10/12 09:04:28;;;;;;;8.02;4.47;;;;;;;10.82;79.49;101213.38;5040454;28;20434;-76
2022/10/12 09:07:00;;;;;;;11.15;4.60;;;;;;;11.00;79.32;101220.69;5034695;28;20048;-77
2022/10/12 09:09:45;;;;;;;13.00;4.95;;;;;;;10.99;78.93;101189.78;5035985;28;20044;-75
2022/10/12 09:12:25;;;;;;;7.18;4.55;;;;;;;11.28;77.94;101214.38;5036637;28;20659;-73
2022/10/12 09:14:59;;;;;;;12.13;5.03;;;;;;;11.38;77.07;101213.97;5036431;28;20057;-74
2022/10/12 09:17:31;;;;;;;11.45;4.00;;;;;;;11.44;77.26;101220.84;5038855;28;20041;-74
2022/10/12 09:20:03;;;;;;;12.13;4.40;;;;;;;11.50;75.98;101213.50;5032852;28;20404;-79
2022/10/12 09:22:30;;;;;;;11.25;4.10;;;;;;;11.53;76.12;101213.38;5033828;28;20076;-77
2022/10/12 09:24:58;;;;;;;8.63;4.55;;;;;;;11.64;77.17;101209.47;5038128;28;20215;-76
2022/10/12 09:27:29;;;;;;;10.70;4.50;;;;;;;11.81;76.52;101209.69;5031006;28;20198;-75
2022/10/12 09:30:00;;;;;;;14.02;5.20;;;;;;;11.85;74.72;101198.03;5038570;28;20041;-77
2022/10/12 09:32:37;;;;;;;10.68;4.35;;;;;;;11.99;75.58;101208.97;5037976;28;20049;-78
2022/10/12 09:35:06;;;;;;;10.82;4.75;;;;;;;12.18;75.67;101203.78;5040639;28;20048;-74
2022/10/12 09:37:34;;;;;;;12.55;4.60;;;;;;;12.18;74.62;101182.56;5039353;28;20156;-76
2022/10/12 09:40:01;;;;;;;11.07;4.63;;;;;;;12.38;73.72;101193.22;5040723;28;20072;-74
2022/10/12 09:42:28;;;;;;;10.77;4.80;;;;;;;12.36;73.75;101172.97;5040049;28;20072;-79
2022/10/12 09:45:11;;;;;;;10.15;4.88;;;;;;;12.50;73.96;101168.78;5038023;28;20568;-74
2022/10/12 09:47:38;;;;;;;12.35;5.45;;;;;;;12.78;73.81;101192.38;5044949;28;20045;-77
2022/10/12 09:50:06;;;;;;;11.18;5.00;;;;;;;12.83;73.16;101166.47;5041575;28;20067;-74
2022/10/12 09:52:36;;;;;;;11.93;4.93;;;;;;;13.07;72.19;101182.25;5043325;28;20120;-75
2022/10/12 09:55:26;;;;;;;13.05;4.47;;;;;;;13.19;72.15;101184.41;5036921;28;20138;-74
2022/10/12 09:58:01;;;;;;;12.65;5.15;;;;;;;13.24;71.62;101191.22;5032041;28;20120;-73
2022/10/12 10:00:30;;;;;;;13.65;4.85;;;;;;;13.28;70.47;101179.53;5039356;28;20144;-73
2022/10/12 10:02:58;;;;;;;13.43;5.25;;;;;;;13.31;70.69;101170.56;5042094;28;20049;-75
2022/10/12 10:05:33;;;;;;;9.82;5.13;;;;;;;13.44;71.00;101181.47;5037254;28;20053;-75
2022/10/12 10:08:12;;;;;;;14.02;6.40;;;;;;;13.59;71.06;101173.66;5035848;28;21979;-77
2022/10/12 10:10:52;;;;;;;15.75;6.45;;;;;;;13.62;70.43;101160.22;5035816;28;20041;-74
2022/10/12 10:13:21;;;;;;;13.70;6.65;;;;;;;13.83;70.28;101178.75;5037017;28;20144;-78
2022/10/12 10:16:03;;;;;;;15.90;7.85;;;;;;;13.94;69.86;101181.75;5034586;28;20045;-73
2022/10/12 10:18:42;;;;;;;14.60;7.35;;;;;;;13.93;70.37;101170.25;5033439;28;20044;-72
2022/10/12 10:21:11;;;;;;;14.68;7.28;;;;;;;14.07;70.50;101179.34;5035413;28;20136;-77
2022/10/12 10:23:44;;;;;;;18.63;7.70;;;;;;;14.12;69.63;101167.56;5031157;28;20385;-74
2022/10/12 10:26:14;;;;;;;11.38;6.97;;;;;;;14.15;70.31;101158.56;5034089;28;20498;-77
2022/10/12 10:28:43;;;;;;;14.65;6.82;;;;;;;14.35;69.92;101169.91;5040569;28;20381;-75
2022/10/12 10:31:15;;;;;;;19.08;7.55;;;;;;;14.48;68.99;101167.53;5041467;28;20515;-78
2022/10/12 10:33:42;;;;;;;14.85;7.43;;;;;;;14.51;69.11;101155.84;5038288;28;20049;-75
2022/10/12 10:36:22;;;;;;;17.67;9.48;;;;;;;14.69;69.08;101171.75;5037344;28;20607;-76
2022/10/12 10:39:19;;;;;;;15.02;7.57;;;;;;;14.64;69.25;101176.47;5040299;28;20048;-76
2022/10/12 10:41:47;;;;;;;14.35;7.28;;;;;;;14.72;68.46;101168.09;5014886;28;20489;-78
2022/10/12 10:44:29;;;;;;;13.75;7.80;;;;;;;14.86;68.01;101172.69;5038561;28;20056;-76
2022/10/12 10:47:06;;;;;;;13.80;7.50;;;;;;;14.89;67.10;101173.41;5037432;28;20045;-79
2022/10/12 10:49:38;;;;;;;13.88;7.50;;;;;;;14.68;68.38;101146.03;5034104;28;20047;-76
2022/10/12 10:52:18;;;;;;;11.85;7.05;;;;;;;14.69;69.29;101165.56;5045390;28;20044;-81
2022/10/12 10:54:45;;;;;;;14.77;7.75;;;;;;;14.63;69.45;101147.25;5056275;28;20037;-72
2022/10/12 10:57:22;;;;;;;12.50;7.60;;;;;;;14.72;68.61;101149.41;5057525;28;20037;-71
2022/10/12 10:59:49;;;;;;;15.35;8.07;;;;;;;15.00;68.00;101165.69;5057981;28;20077;-78
2022/10/12 11:02:27;;;;;;;16.55;8.13;;;;;;;15.13;67.62;101149.00;5056824;28;20131;-75
2022/10/12 11:05:15;;;;;;;13.82;8.75;;;;;;;15.35;67.07;101146.91;5055447;28;20068;-75
2022/10/12 11:08:01;;;;;;;16.55;8.30;;;;;;;15.37;66.10;101110.34;5039424;28;20069;-75
2022/10/12 11:10:41;;;;;;;14.13;8.18;;;;;;;15.69;66.41;101138.81;5040450;28;20057;-74
2022/10/12 11:13:36;;;;;;;15.13;7.68;;;;;;;15.81;65.36;101123.03;5039875;28;20067;-75
2022/10/12 11:16:11;;;;;;;16.08;8.00;;;;;;;15.93;64.58;101119.63;5045092;28;20136;-78
2022/10/12 11:18:43;;;;;;;18.83;9.80;;;;;;;15.94;63.83;101121.38;5045454;28;20045;-80
2022/10/12 11:21:20;;;;;;;14.40;8.82;;;;;;;15.99;65.46;101133.53;5046380;28;20045;-79
2022/10/12 11:23:55;;;;;;;14.50;9.23;;;;;;;15.98;64.79;101128.25;5043633;28;20049;-74
2022/10/12 11:26:34;;;;;;;15.48;8.45;;;;;;;15.96;65.99;101119.47;5047504;28;20084;-72
2022/10/12 11:29:01;;;;;;;15.55;9.15;;;;;;;16.19;64.17;101123.50;5045498;28;20448;-76
2022/10/12 11:31:41;;;;;;;19.38;9.10;;;;;;;16.29;63.66;101106.81;5046614;28;20057;-76
2022/10/12 11:34:15;;;;;;;16.45;9.40;;;;;;;16.47;64.11;101121.75;5048304;28;20045;-78
2022/10/12 11:36:46;;;;;;;13.85;7.90;;;;;;;16.80;62.27;101112.69;5043902;28;20053;-75